createdAt,value
2022-09-12T00:01:27.957Z,15.04
2022-09-12T00:03:58.427Z,15.05
2022-09-12T00:06:32.724Z,15.04
2022-09-12T00:09:04.618Z,15.02
2022-09-12T00:11:34.815Z,14.96
2022-09-12T00:14:03.765Z,14.94
2022-09-12T00:16:33.988Z,14.94
2022-09-12T00:19:04.566Z,14.92
2022-09-12T00:21:34.393Z,14.92
2022-09-12T00:24:02.651Z,14.88
2022-09-12T00:26:30.818Z,14.85
2022-09-12T00:28:58.736Z,14.85
2022-09-12T00:31:27.465Z,14.86
2022-09-12T00:33:58.841Z,14.87
2022-09-12T00:36:27.725Z,14.89
2022-09-12T00:38:56.773Z,14.87
2022-09-12T00:41:28.682Z,14.86
2022-09-12T00:43:59.907Z,14.87
2022-09-12T00:46:49.025Z,14.86
2022-09-12T00:49:45.711Z,14.88
2022-09-12T00:52:34.292Z,14.88
2022-09-12T00:55:10.961Z,14.86
2022-09-12T00:57:57.171Z,14.87
2022-09-12T01:00:27.442Z,14.86
2022-09-12T01:03:00.364Z,14.84
2022-09-12T01:05:31.413Z,14.84
2022-09-12T01:08:02.554Z,14.83
2022-09-12T01:10:30.901Z,14.82
2022-09-12T01:12:59.453Z,14.83
2022-09-12T01:15:27.406Z,14.85
2022-09-12T01:18:10.785Z,14.83
2022-09-12T01:21:02.887Z,14.81
2022-09-12T01:24:06.271Z,14.80
2022-09-12T01:27:04.190Z,14.79
2022-09-12T01:30:01.289Z,14.81
2022-09-12T01:33:09.221Z,14.83
2022-09-12T01:36:12.664Z,14.83
2022-09-12T01:38:50.535Z,14.81
2022-09-12T01:41:39.144Z,14.79
2022-09-12T01:44:27.624Z,14.79
2022-09-12T01:47:22.505Z,14.78
2022-09-12T01:50:07.403Z,14.79
2022-09-12T01:52:45.670Z,14.79
2022-09-12T01:55:23.163Z,14.72
2022-09-12T01:58:36.073Z,14.65
2022-09-12T02:01:11.334Z,14.62
2022-09-12T02:04:04.771Z,14.61
2022-09-12T02:06:43.957Z,14.61
2022-09-12T02:09:20.948Z,14.58
2022-09-12T02:11:53.762Z,14.57
2022-09-12T02:14:36.917Z,14.57
2022-09-12T02:17:34.802Z,14.59
2022-09-12T02:20:26.089Z,14.57
2022-09-12T02:23:06.680Z,14.57
2022-09-12T02:25:38.020Z,14.56
2022-09-12T02:28:13.785Z,14.60
2022-09-12T02:31:08.178Z,14.62
2022-09-12T02:33:45.923Z,14.61
2022-09-12T02:36:31.634Z,14.58
2022-09-12T02:39:00.269Z,14.55
2022-09-12T02:41:28.672Z,14.55
2022-09-12T02:43:56.764Z,14.56
2022-09-12T02:46:46.861Z,14.57
2022-09-12T02:49:15.933Z,14.58
2022-09-12T02:51:45.099Z,14.56
2022-09-12T02:54:15.211Z,14.53
2022-09-12T02:56:46.200Z,14.53
2022-09-12T02:59:18.121Z,14.53
2022-09-12T03:02:07.953Z,14.56
2022-09-12T03:04:54.416Z,14.58
2022-09-12T03:07:59.944Z,14.62
2022-09-12T03:11:25.590Z,14.64
2022-09-12T03:14:13.458Z,14.61
2022-09-12T03:16:57.065Z,14.58
2022-09-12T03:19:37.918Z,14.57
2022-09-12T03:22:18.964Z,14.57
2022-09-12T03:25:02.860Z,14.56
2022-09-12T03:27:35.782Z,14.51
2022-09-12T03:30:06.374Z,14.44
2022-09-12T03:32:49.457Z,14.39
2022-09-12T03:35:22.843Z,14.31
2022-09-12T03:37:52.292Z,14.29
2022-09-12T03:40:20.466Z,14.22
2022-09-12T03:42:49.393Z,14.15
2022-09-12T03:45:17.370Z,14.10
2022-09-12T03:47:48.575Z,14.08
2022-09-12T03:50:16.587Z,14.09
2022-09-12T03:52:44.397Z,14.12
2022-09-12T03:55:12.469Z,14.17
2022-09-12T03:57:40.662Z,14.21
2022-09-12T04:00:09.634Z,14.24
2022-09-12T04:02:44.150Z,14.27
2022-09-12T04:05:11.965Z,14.29
2022-09-12T04:07:39.795Z,14.29
2022-09-12T04:10:09.534Z,14.30
2022-09-12T04:12:39.676Z,14.32
2022-09-12T04:15:08.932Z,14.35
2022-09-12T04:17:36.938Z,14.36
2022-09-12T04:20:05.768Z,14.37
2022-09-12T04:22:33.915Z,14.35
2022-09-12T04:25:03.557Z,14.33
2022-09-12T04:27:31.786Z,14.32
2022-09-12T04:30:01.395Z,14.31
2022-09-12T04:32:31.289Z,14.30
2022-09-12T04:34:59.158Z,14.28
2022-09-12T04:37:26.939Z,14.26
2022-09-12T04:39:59.310Z,14.25
2022-09-12T04:42:27.153Z,14.28
2022-09-12T04:44:55.026Z,14.30
2022-09-12T04:47:23.309Z,14.33
2022-09-12T04:49:51.590Z,14.37
2022-09-12T04:52:20.810Z,14.36
2022-09-12T04:54:48.721Z,14.34
2022-09-12T04:57:19.062Z,14.34
2022-09-12T04:59:47.101Z,14.37
2022-09-12T05:02:14.922Z,14.42
2022-09-12T05:04:44.215Z,14.44
2022-09-12T05:07:12.393Z,14.42
2022-09-12T05:09:40.249Z,14.44
2022-09-12T05:12:10.043Z,14.49
2022-09-12T05:14:37.917Z,14.51
2022-09-12T05:17:06.288Z,14.55
2022-09-12T05:19:34.914Z,14.59
2022-09-12T05:22:02.794Z,14.61
2022-09-12T05:24:30.647Z,14.69
2022-09-12T05:26:59.015Z,14.79
2022-09-12T05:29:29.923Z,14.84
2022-09-12T05:31:57.988Z,14.87
2022-09-12T05:34:26.323Z,14.87
2022-09-12T05:36:54.297Z,14.83
2022-09-12T05:39:25.989Z,14.82
2022-09-12T05:41:55.470Z,14.81
2022-09-12T05:44:23.213Z,14.79
2022-09-12T05:46:53.750Z,14.76
2022-09-12T05:49:24.863Z,14.77
2022-09-12T05:51:52.937Z,14.76
2022-09-12T05:54:21.389Z,14.79
2022-09-12T05:56:49.680Z,14.85
2022-09-12T05:59:20.606Z,14.90
2022-09-12T06:01:49.295Z,14.92
2022-09-12T06:04:18.132Z,14.95
2022-09-12T06:06:49.200Z,14.97
2022-09-12T06:09:17.001Z,14.97
2022-09-12T06:11:46.425Z,14.91
2022-09-12T06:14:18.055Z,14.94
2022-09-12T06:16:47.474Z,14.99
2022-09-12T06:19:20.665Z,15.05
2022-09-12T06:21:53.665Z,15.08
2022-09-12T06:24:21.742Z,15.10
2022-09-12T06:26:52.867Z,15.13
2022-09-12T06:29:22.051Z,15.18
2022-09-12T06:31:51.496Z,15.25
2022-09-12T06:34:20.076Z,15.29
2022-09-12T06:36:49.791Z,15.29
2022-09-12T06:39:22.395Z,15.26
2022-09-12T06:41:51.859Z,15.23
2022-09-12T06:44:34.239Z,15.24
2022-09-12T06:47:02.053Z,15.24
2022-09-12T06:49:31.180Z,15.24
2022-09-12T06:52:01.166Z,15.26
2022-09-12T06:54:29.058Z,15.25
2022-09-12T06:56:56.944Z,15.29
2022-09-12T06:59:25.020Z,15.35
2022-09-12T07:01:52.924Z,15.38
2022-09-12T07:04:20.966Z,15.42
2022-09-12T07:06:54.071Z,15.46
2022-09-12T07:09:22.259Z,15.46
2022-09-12T07:11:50.150Z,15.44
2022-09-12T07:14:18.059Z,15.38
2022-09-12T07:16:46.092Z,15.38
2022-09-12T07:19:14.787Z,15.39
2022-09-12T07:21:44.301Z,15.44
2022-09-12T07:24:12.183Z,15.50
2022-09-12T07:26:42.508Z,15.56
2022-09-12T07:29:35.985Z,15.60
2022-09-12T07:32:06.025Z,15.64
2022-09-12T07:34:34.972Z,15.56
2022-09-12T07:37:03.295Z,15.54
2022-09-12T07:39:31.265Z,15.61
2022-09-12T07:42:00.648Z,15.69
2022-09-12T07:44:30.371Z,15.76
2022-09-12T07:46:58.460Z,15.81
2022-09-12T07:49:26.331Z,15.77
2022-09-12T07:51:54.120Z,15.77
2022-09-12T07:54:22.021Z,15.86
2022-09-12T07:56:49.869Z,15.91
2022-09-12T07:59:30.210Z,15.99
2022-09-12T08:02:16.571Z,16.13
2022-09-12T08:04:45.307Z,16.18
2022-09-12T08:07:13.233Z,16.24
2022-09-12T08:09:42.127Z,16.34
2022-09-12T08:12:10.439Z,16.44
2022-09-12T08:14:38.647Z,16.51
2022-09-12T08:17:07.745Z,16.60
2022-09-12T08:19:36.364Z,16.65
2022-09-12T08:22:07.046Z,16.65
2022-09-12T08:24:34.937Z,16.70
2022-09-12T08:27:04.140Z,16.80
2022-09-12T08:29:32.115Z,16.86
2022-09-12T08:32:00.163Z,16.89
2022-09-12T08:34:28.043Z,16.93
2022-09-12T08:36:55.866Z,16.98
2022-09-12T08:39:25.068Z,16.98
2022-09-12T08:42:03.330Z,16.87
2022-09-12T08:45:05.882Z,16.93
2022-09-12T08:47:45.305Z,17.10
2022-09-12T08:50:19.883Z,17.17
2022-09-12T08:52:58.823Z,17.18
2022-09-12T08:55:41.519Z,17.20
2022-09-12T08:58:24.318Z,17.24
2022-09-12T09:01:35.858Z,17.25
2022-09-12T09:04:31.406Z,17.29
2022-09-12T09:07:18.997Z,17.38
2022-09-12T09:10:17.018Z,17.36
2022-09-12T09:13:41.066Z,17.31
2022-09-12T09:16:27.286Z,17.29
2022-09-12T09:19:17.692Z,17.39
2022-09-12T09:21:59.144Z,17.43
2022-09-12T09:24:45.546Z,17.48
2022-09-12T09:27:44.178Z,17.58
2022-09-12T09:30:17.577Z,17.62
2022-09-12T09:32:52.455Z,17.60
2022-09-12T09:35:59.553Z,17.56
2022-09-12T09:38:41.802Z,17.57
2022-09-12T09:42:07.882Z,17.65
2022-09-12T09:44:36.677Z,17.75
2022-09-12T09:47:05.536Z,17.80
2022-09-12T09:49:35.254Z,17.80
2022-09-12T09:52:07.380Z,17.80
2022-09-12T09:54:41.364Z,17.81
2022-09-12T09:57:34.548Z,17.71
2022-09-12T10:00:21.969Z,17.67
2022-09-12T10:03:13.843Z,17.72
2022-09-12T10:05:46.968Z,17.78
2022-09-12T10:08:31.146Z,17.84
2022-09-12T10:11:17.530Z,17.89
2022-09-12T10:13:57.969Z,17.91
2022-09-12T10:16:33.539Z,18.00
2022-09-12T10:19:04.137Z,18.01
2022-09-12T10:21:41.354Z,18.03
2022-09-12T10:24:43.671Z,17.93
2022-09-12T10:27:20.736Z,17.85
2022-09-12T10:30:04.679Z,17.79
2022-09-12T10:32:47.127Z,17.67
2022-09-12T10:35:24.135Z,17.56
2022-09-12T10:38:04.933Z,17.57
2022-09-12T10:40:45.447Z,17.57
2022-09-12T10:43:24.517Z,17.70
2022-09-12T10:46:19.960Z,17.89
2022-09-12T10:49:11.838Z,18.06
2022-09-12T10:52:25.803Z,18.15
2022-09-12T10:54:54.952Z,18.19
2022-09-12T10:57:25.720Z,18.24
2022-09-12T11:00:18.066Z,18.32
2022-09-12T11:02:58.978Z,18.31
2022-09-12T11:05:49.377Z,18.29
2022-09-12T11:08:48.377Z,18.29
2022-09-12T11:12:01.340Z,18.29
2022-09-12T11:15:03.238Z,18.36
2022-09-12T11:17:54.346Z,18.36
2022-09-12T11:21:04.120Z,18.38
2022-09-12T11:24:00.197Z,18.44
2022-09-12T11:27:00.998Z,18.45
2022-09-12T11:30:10.430Z,18.36
2022-09-12T11:33:23.550Z,18.26
2022-09-12T11:35:55.531Z,18.21
2022-09-12T11:39:07.209Z,18.26
2022-09-12T11:41:36.890Z,18.34
2022-09-12T11:44:27.143Z,18.43
2022-09-12T11:46:55.198Z,18.48
2022-09-12T11:49:47.531Z,18.41
2022-09-12T11:52:19.968Z,18.50
2022-09-12T11:55:05.993Z,18.53
2022-09-12T11:57:41.607Z,18.63
2022-09-12T12:00:20.343Z,18.68
2022-09-12T12:03:06.558Z,18.60
2022-09-12T12:05:57.871Z,18.62
2022-09-12T12:08:27.824Z,18.62
2022-09-12T12:11:02.330Z,18.60
2022-09-12T12:13:51.100Z,18.56
2022-09-12T12:16:30.047Z,18.74
2022-09-12T12:19:00.424Z,18.82
2022-09-12T12:21:36.969Z,18.81
2022-09-12T12:24:08.153Z,18.82
2022-09-12T12:26:41.270Z,18.76
2022-09-12T12:29:24.281Z,18.77
2022-09-12T12:32:25.048Z,18.79
2022-09-12T12:35:02.596Z,18.89
2022-09-12T12:37:30.320Z,18.96
2022-09-12T12:40:09.782Z,19.13
2022-09-12T12:42:43.865Z,19.26
2022-09-12T12:45:30.084Z,19.31
2022-09-12T12:48:10.252Z,19.37
2022-09-12T12:50:39.529Z,19.50
2022-09-12T12:53:19.747Z,19.65
2022-09-12T12:55:53.260Z,19.80
2022-09-12T12:58:34.714Z,19.79
2022-09-12T13:01:25.831Z,19.67
2022-09-12T13:03:56.286Z,19.72
2022-09-12T13:06:32.110Z,19.78
2022-09-12T13:09:06.089Z,19.81
2022-09-12T13:11:40.491Z,19.75
2022-09-12T13:14:36.162Z,19.44
2022-09-12T13:17:08.451Z,19.26
2022-09-12T13:19:38.158Z,19.09
2022-09-12T13:22:08.886Z,18.89
2022-09-12T13:24:49.186Z,18.77
2022-09-12T13:27:19.807Z,18.66
2022-09-12T13:29:47.937Z,18.55
2022-09-12T13:32:18.351Z,18.42
2022-09-12T13:35:21.284Z,18.33
2022-09-12T13:38:23.604Z,18.30
2022-09-12T13:41:27.181Z,18.26
2022-09-12T13:43:55.162Z,18.25
2022-09-12T13:46:31.409Z,18.22
2022-09-12T13:49:01.497Z,18.17
2022-09-12T13:51:32.247Z,18.14
2022-09-12T13:54:04.719Z,18.15
2022-09-12T13:56:33.296Z,18.17
2022-09-12T13:59:02.614Z,18.15
2022-09-12T14:01:47.694Z,18.16
2022-09-12T14:04:43.549Z,18.19
2022-09-12T14:07:20.356Z,18.25
2022-09-12T14:09:57.442Z,18.28
2022-09-12T14:12:30.365Z,18.25
2022-09-12T14:14:59.442Z,18.28
2022-09-12T14:17:29.969Z,18.32
2022-09-12T14:20:03.641Z,18.38
2022-09-12T14:22:34.277Z,18.44
2022-09-12T14:25:03.467Z,18.50
2022-09-12T14:27:45.776Z,18.55
2022-09-12T14:30:32.131Z,18.74
2022-09-12T14:33:18.968Z,18.93
2022-09-12T14:35:51.170Z,19.20
2022-09-12T14:38:36.183Z,19.68
2022-09-12T14:41:10.568Z,19.55
2022-09-12T14:43:46.018Z,19.53
2022-09-12T14:46:28.684Z,19.42
2022-09-12T14:49:29.580Z,19.19
2022-09-12T14:52:00.220Z,19.02
2022-09-12T14:54:39.561Z,18.95
2022-09-12T14:57:30.563Z,18.88
2022-09-12T15:00:21.035Z,18.82
2022-09-12T15:02:50.236Z,18.75
2022-09-12T15:05:21.438Z,18.60
2022-09-12T15:08:01.293Z,18.44
2022-09-12T15:10:37.843Z,18.39
2022-09-12T15:13:05.556Z,18.38
2022-09-12T15:15:34.097Z,18.37
2022-09-12T15:18:06.846Z,18.33
2022-09-12T15:20:41.382Z,18.29
2022-09-12T15:23:21.256Z,18.26
2022-09-12T15:25:49.437Z,18.24
2022-09-12T15:28:22.779Z,18.24
2022-09-12T15:30:54.910Z,18.24
2022-09-12T15:33:25.437Z,18.26
2022-09-12T15:35:53.678Z,18.27
2022-09-12T15:38:25.797Z,18.30
2022-09-12T15:40:55.048Z,18.34
2022-09-12T15:43:23.848Z,18.33
2022-09-12T15:45:52.505Z,18.36
2022-09-12T15:48:21.202Z,18.45
2022-09-12T15:50:49.381Z,18.56
2022-09-12T15:53:17.869Z,18.69
2022-09-12T15:55:46.577Z,18.81
2022-09-12T15:58:14.443Z,18.95
2022-09-12T16:00:42.286Z,19.10
2022-09-12T16:03:20.526Z,19.25
2022-09-12T16:05:56.377Z,19.42
2022-09-12T16:08:25.162Z,19.56
2022-09-12T16:10:58.735Z,19.72
2022-09-12T16:13:26.939Z,19.98
2022-09-12T16:15:58.993Z,20.18
2022-09-12T16:18:28.481Z,20.77
2022-09-12T16:20:57.062Z,21.00
2022-09-12T16:23:26.018Z,20.98
2022-09-12T16:26:01.482Z,20.93
2022-09-12T16:28:29.415Z,20.88
2022-09-12T16:31:00.000Z,20.78
2022-09-12T16:33:29.079Z,20.66
2022-09-12T16:36:12.039Z,20.51
2022-09-12T16:38:54.252Z,20.36
2022-09-12T16:41:27.602Z,20.20
2022-09-12T16:44:00.537Z,20.03
2022-09-12T16:46:29.373Z,19.83
2022-09-12T16:48:58.887Z,19.66
2022-09-12T16:51:32.023Z,19.49
2022-09-12T16:53:59.894Z,19.29
2022-09-12T16:56:28.041Z,19.12
2022-09-12T16:58:56.030Z,18.94
2022-09-12T17:01:25.849Z,18.74
2022-09-12T17:03:56.650Z,18.57
2022-09-12T17:06:26.307Z,18.42
2022-09-12T17:08:59.056Z,18.27
2022-09-12T17:11:32.773Z,18.14
2022-09-12T17:14:05.373Z,18.00
2022-09-12T17:16:42.040Z,17.85
2022-09-12T17:19:15.995Z,17.72
2022-09-12T17:21:47.695Z,17.62
2022-09-12T17:24:20.220Z,17.58
2022-09-12T17:26:48.465Z,17.52
2022-09-12T17:29:17.621Z,17.46
2022-09-12T17:31:47.107Z,17.39
2022-09-12T17:34:17.457Z,17.28
2022-09-12T17:36:49.265Z,17.21
2022-09-12T17:39:19.058Z,17.15
2022-09-12T17:41:47.805Z,17.06
2022-09-12T17:44:17.600Z,16.97
2022-09-12T17:46:46.503Z,16.88
2022-09-12T17:49:16.760Z,16.79
2022-09-12T17:51:45.871Z,16.70
2022-09-12T17:54:17.645Z,16.59
2022-09-12T17:56:49.381Z,16.49
2022-09-12T17:59:30.817Z,16.40
2022-09-12T18:02:14.922Z,16.34
2022-09-12T18:04:46.507Z,16.25
2022-09-12T18:07:18.831Z,16.13
2022-09-12T18:09:51.328Z,16.04
2022-09-12T18:12:20.501Z,15.95
2022-09-12T18:14:48.719Z,15.90
2022-09-12T18:17:17.384Z,15.86
2022-09-12T18:19:50.360Z,15.84
2022-09-12T18:22:21.924Z,15.81
2022-09-12T18:24:51.026Z,15.76
2022-09-12T18:27:19.545Z,15.69
2022-09-12T18:30:04.218Z,15.63
2022-09-12T18:32:36.451Z,15.57
2022-09-12T18:35:06.380Z,15.52
2022-09-12T18:37:36.033Z,15.46
2022-09-12T18:40:05.090Z,15.37
2022-09-12T18:42:33.642Z,15.34
2022-09-12T18:45:02.707Z,15.30
2022-09-12T18:47:32.540Z,15.25
2022-09-12T18:50:01.948Z,15.21
2022-09-12T18:52:30.437Z,15.17
2022-09-12T18:54:59.328Z,15.17
2022-09-12T18:57:27.916Z,15.17
2022-09-12T19:00:00.297Z,15.19
2022-09-12T19:02:29.486Z,15.20
2022-09-12T19:04:57.835Z,15.20
2022-09-12T19:07:26.280Z,15.19
2022-09-12T19:09:54.929Z,15.18
2022-09-12T19:12:24.605Z,15.17
2022-09-12T19:14:52.891Z,15.16
2022-09-12T19:17:21.564Z,15.17
2022-09-12T19:19:49.644Z,15.17
2022-09-12T19:22:17.813Z,15.16
2022-09-12T19:24:45.668Z,15.14
2022-09-12T19:27:13.843Z,15.12
2022-09-12T19:29:41.949Z,15.11
2022-09-12T19:32:10.144Z,15.07
2022-09-12T19:34:38.064Z,15.04
2022-09-12T19:37:05.900Z,14.98
2022-09-12T19:39:34.564Z,14.94
2022-09-12T19:42:02.584Z,14.91
2022-09-12T19:44:30.632Z,14.91
2022-09-12T19:46:58.661Z,14.92
2022-09-12T19:49:26.579Z,14.92
2022-09-12T19:51:54.478Z,14.92
2022-09-12T19:54:22.402Z,14.89
2022-09-12T19:56:50.690Z,14.84
2022-09-12T19:59:18.840Z,14.80
2022-09-12T20:01:47.570Z,14.78
2022-09-12T20:04:16.736Z,14.73
2022-09-12T20:06:45.025Z,14.66
2022-09-12T20:09:13.232Z,14.63
2022-09-12T20:11:41.064Z,14.63
2022-09-12T20:14:09.618Z,14.63
2022-09-12T20:16:37.864Z,14.64
2022-09-12T20:19:08.527Z,14.66
2022-09-12T20:21:36.899Z,14.65
2022-09-12T20:24:07.495Z,14.60
2022-09-12T20:26:35.950Z,14.54
2022-09-12T20:29:05.753Z,14.47
2022-09-12T20:31:34.635Z,14.41
2022-09-12T20:34:04.408Z,14.36
2022-09-12T20:36:32.382Z,14.30
2022-09-12T20:39:03.678Z,14.28
2022-09-12T20:41:34.569Z,14.29
2022-09-12T20:44:02.667Z,14.30
2022-09-12T20:46:30.564Z,14.30
2022-09-12T20:48:58.889Z,14.29
2022-09-12T20:51:27.382Z,14.29
2022-09-12T20:53:57.343Z,14.26
2022-09-12T20:56:27.322Z,14.18
2022-09-12T20:58:55.894Z,14.05
2022-09-12T21:01:25.823Z,13.97
2022-09-12T21:03:53.962Z,13.95
2022-09-12T21:06:22.147Z,13.92
2022-09-12T21:08:50.614Z,13.90
2022-09-12T21:11:20.012Z,13.87
2022-09-12T21:13:47.898Z,13.85
2022-09-12T21:16:21.133Z,13.83
2022-09-12T21:19:18.858Z,13.83
2022-09-12T21:21:46.609Z,13.86
2022-09-12T21:24:15.214Z,13.89
2022-09-12T21:26:43.064Z,13.90
2022-09-12T21:29:11.090Z,13.91
2022-09-12T21:31:38.958Z,13.88
2022-09-12T21:34:06.861Z,13.80
2022-09-12T21:36:34.909Z,13.73
2022-09-12T21:39:04.000Z,13.66
2022-09-12T21:41:32.345Z,13.57
2022-09-12T21:44:00.468Z,13.52
2022-09-12T21:46:28.309Z,13.47
2022-09-12T21:48:56.438Z,13.41
2022-09-12T21:51:24.255Z,13.29
2022-09-12T21:53:52.101Z,13.21
2022-09-12T21:56:20.338Z,13.17
2022-09-12T21:58:48.163Z,13.18
2022-09-12T22:01:16.616Z,13.19
2022-09-12T22:03:44.808Z,13.19
2022-09-12T22:06:14.398Z,13.19
2022-09-12T22:08:42.554Z,13.17
2022-09-12T22:11:11.046Z,13.13
2022-09-12T22:13:42.138Z,13.13
2022-09-12T22:16:10.090Z,13.15
2022-09-12T22:18:38.641Z,13.19
2022-09-12T22:21:14.281Z,13.23
2022-09-12T22:24:01.195Z,13.24
2022-09-12T22:26:29.405Z,13.25
2022-09-12T22:28:57.285Z,13.24
2022-09-12T22:31:26.694Z,13.20
2022-09-12T22:33:57.212Z,13.17
2022-09-12T22:36:30.490Z,13.14
2022-09-12T22:38:59.810Z,13.10
2022-09-12T22:41:28.571Z,13.06
2022-09-12T22:43:57.105Z,13.01
2022-09-12T22:46:25.200Z,12.96
2022-09-12T22:48:53.130Z,12.97
2022-09-12T22:51:20.896Z,12.99
2022-09-12T22:53:49.189Z,13.02
2022-09-12T22:56:18.210Z,13.01
2022-09-12T22:58:46.018Z,13.00
2022-09-12T23:01:14.307Z,12.97
2022-09-12T23:03:42.239Z,12.93
2022-09-12T23:06:11.340Z,12.91
2022-09-12T23:08:40.303Z,12.89
2022-09-12T23:11:14.299Z,12.92
2022-09-12T23:13:44.986Z,12.95
2022-09-12T23:16:19.260Z,12.98
2022-09-12T23:18:47.936Z,13.00
2022-09-12T23:21:17.932Z,13.02
2022-09-12T23:23:46.136Z,13.00
2022-09-12T23:26:19.113Z,12.96
2022-09-12T23:28:48.816Z,12.92
2022-09-12T23:31:17.571Z,12.86
2022-09-12T23:33:45.993Z,12.80
2022-09-12T23:36:14.596Z,12.75
2022-09-12T23:38:44.627Z,12.69
2022-09-12T23:41:17.092Z,12.66
2022-09-12T23:43:46.157Z,12.66
2022-09-12T23:46:15.493Z,12.69
2022-09-12T23:48:43.925Z,12.70
2022-09-12T23:51:12.071Z,12.70
2022-09-12T23:53:41.491Z,12.68
2022-09-12T23:56:10.093Z,12.66
2022-09-12T23:58:38.115Z,12.62
